sensor_id;sensor_type;location;lat;lon;timestamp;pressure;altitude;pressure_sealevel;temperature;humidity
37068;BME280;22982;42.848;25.468;2022-12-16T00:02:35;96021.66;;;3.07;100.00
37068;BME280;22982;42.848;25.468;2022-12-16T00:07:37;96029.28;;;2.86;100.00
37068;BME280;22982;42.848;25.468;2022-12-16T00:12:39;96027.88;;;2.76;100.00
37068;BME280;22982;42.848;25.468;2022-12-16T00:17:42;96025.53;;;2.95;100.00
37068;BME280;22982;42.848;25.468;2022-12-16T00:22:44;96042.69;;;3.23;100.00
37068;BME280;22982;42.848;25.468;2022-12-16T00:27:46;96050.31;;;2.77;100.00
37068;BME280;22982;42.848;25.468;2022-12-16T00:32:48;96046.69;;;2.81;100.00
37068;BME280;22982;42.848;25.468;2022-12-16T00:37:51;96020.19;;;2.75;100.00
37068;BME280;22982;42.848;25.468;2022-12-16T00:42:54;96029.59;;;2.77;100.00
37068;BME280;22982;42.848;25.468;2022-12-16T00:47:56;96042.28;;;3.10;100.00
37068;BME280;22982;42.848;25.468;2022-12-16T00:52:59;96015.91;;;2.99;100.00
37068;BME280;22982;42.848;25.468;2022-12-16T00:58:01;95990.91;;;2.98;100.00
37068;BME280;22982;42.848;25.468;2022-12-16T01:03:04;95993.91;;;3.11;100.00
37068;BME280;22982;42.848;25.468;2022-12-16T01:08:06;95986.81;;;2.91;100.00
37068;BME280;22982;42.848;25.468;2022-12-16T01:13:08;95978.72;;;3.00;100.00
37068;BME280;22982;42.848;25.468;2022-12-16T01:18:11;96003.59;;;3.31;100.00
37068;BME280;22982;42.848;25.468;2022-12-16T01:23:14;95993.72;;;3.40;100.00
37068;BME280;22982;42.848;25.468;2022-12-16T01:28:17;96024.88;;;3.39;100.00
37068;BME280;22982;42.848;25.468;2022-12-16T01:33:19;96004.41;;;3.31;100.00
37068;BME280;22982;42.848;25.468;2022-12-16T01:38:21;96040.75;;;3.30;100.00
37068;BME280;22982;42.848;25.468;2022-12-16T01:43:29;96038.47;;;3.45;100.00
37068;BME280;22982;42.848;25.468;2022-12-16T01:48:58;96043.19;;;3.34;100.00
37068;BME280;22982;42.848;25.468;2022-12-16T01:54:09;96032.66;;;3.62;100.00
37068;BME280;22982;42.848;25.468;2022-12-16T01:59:13;96017.88;;;3.64;100.00
37068;BME280;22982;42.848;25.468;2022-12-16T02:04:17;96018.13;;;3.82;100.00
37068;BME280;22982;42.848;25.468;2022-12-16T02:09:19;95991.84;;;3.68;100.00
37068;BME280;22982;42.848;25.468;2022-12-16T02:25:31;95976.50;;;3.85;100.00
37068;BME280;22982;42.848;25.468;2022-12-16T02:36:35;95950.38;;;3.68;100.00
37068;BME280;22982;42.848;25.468;2022-12-16T02:47:01;95952.66;;;3.30;100.00
37068;BME280;22982;42.848;25.468;2022-12-16T02:52:04;95910.38;;;3.51;100.00
37068;BME280;22982;42.848;25.468;2022-12-16T02:57:20;95941.66;;;3.23;100.00
37068;BME280;22982;42.848;25.468;2022-12-16T03:07:41;95943.97;;;3.54;100.00
37068;BME280;22982;42.848;25.468;2022-12-16T03:12:44;95939.56;;;3.56;100.00
37068;BME280;22982;42.848;25.468;2022-12-16T03:17:47;95920.09;;;3.90;100.00
37068;BME280;22982;42.848;25.468;2022-12-16T03:22:53;95933.72;;;3.95;100.00
37068;BME280;22982;42.848;25.468;2022-12-16T03:33:41;95940.63;;;3.96;100.00
37068;BME280;22982;42.848;25.468;2022-12-16T03:38:46;95942.53;;;3.91;100.00
37068;BME280;22982;42.848;25.468;2022-12-16T03:43:49;95953.28;;;3.82;100.00
37068;BME280;22982;42.848;25.468;2022-12-16T03:48:52;95952.13;;;3.67;100.00
37068;BME280;22982;42.848;25.468;2022-12-16T03:53:55;95968.09;;;3.56;100.00
37068;BME280;22982;42.848;25.468;2022-12-16T03:58:57;95947.34;;;3.56;100.00
37068;BME280;22982;42.848;25.468;2022-12-16T04:03:59;95962.22;;;3.51;100.00
37068;BME280;22982;42.848;25.468;2022-12-16T04:09:02;95977.19;;;3.43;100.00
37068;BME280;22982;42.848;25.468;2022-12-16T04:14:04;95967.69;;;3.43;100.00
37068;BME280;22982;42.848;25.468;2022-12-16T04:19:28;95963.25;;;3.47;100.00
37068;BME280;22982;42.848;25.468;2022-12-16T04:24:51;95956.47;;;3.43;100.00
37068;BME280;22982;42.848;25.468;2022-12-16T04:29:55;95967.38;;;3.75;100.00
37068;BME280;22982;42.848;25.468;2022-12-16T04:35:16;95929.09;;;3.36;100.00
37068;BME280;22982;42.848;25.468;2022-12-16T04:40:36;95959.03;;;3.67;100.00
37068;BME280;22982;42.848;25.468;2022-12-16T04:45:57;95954.88;;;3.84;100.00
37068;BME280;22982;42.848;25.468;2022-12-16T04:51:18;95939.84;;;3.49;100.00
37068;BME280;22982;42.848;25.468;2022-12-16T04:56:38;95961.88;;;3.60;100.00
37068;BME280;22982;42.848;25.468;2022-12-16T05:01:59;95960.13;;;3.61;100.00
37068;BME280;22982;42.848;25.468;2022-12-16T05:07:20;95960.63;;;3.71;100.00
37068;BME280;22982;42.848;25.468;2022-12-16T05:12:41;95940.41;;;3.79;100.00
37068;BME280;22982;42.848;25.468;2022-12-16T05:18:10;95949.72;;;4.07;100.00
37068;BME280;22982;42.848;25.468;2022-12-16T05:23:31;95954.91;;;4.07;100.00
37068;BME280;22982;42.848;25.468;2022-12-16T05:28:52;95941.28;;;3.79;100.00
37068;BME280;22982;42.848;25.468;2022-12-16T05:34:12;95948.34;;;3.98;100.00
37068;BME280;22982;42.848;25.468;2022-12-16T05:39:33;95957.72;;;3.78;100.00
37068;BME280;22982;42.848;25.468;2022-12-16T05:44:54;95975.38;;;3.92;100.00
37068;BME280;22982;42.848;25.468;2022-12-16T05:50:14;96001.41;;;3.89;100.00
37068;BME280;22982;42.848;25.468;2022-12-16T05:55:42;95969.19;;;3.73;100.00
37068;BME280;22982;42.848;25.468;2022-12-16T06:01:04;96005.66;;;4.14;100.00
37068;BME280;22982;42.848;25.468;2022-12-16T06:06:25;95983.72;;;3.99;100.00
37068;BME280;22982;42.848;25.468;2022-12-16T06:11:46;96019.22;;;4.20;100.00
37068;BME280;22982;42.848;25.468;2022-12-16T06:17:06;96010.69;;;4.39;100.00
37068;BME280;22982;42.848;25.468;2022-12-16T06:22:27;96032.81;;;4.27;100.00
37068;BME280;22982;42.848;25.468;2022-12-16T06:27:52;96036.88;;;4.34;100.00
37068;BME280;22982;42.848;25.468;2022-12-16T06:33:13;96047.28;;;4.55;100.00
37068;BME280;22982;42.848;25.468;2022-12-16T06:38:34;96036.19;;;4.73;100.00
37068;BME280;22982;42.848;25.468;2022-12-16T06:43:55;96036.91;;;4.77;100.00
37068;BME280;22982;42.848;25.468;2022-12-16T06:49:16;96043.25;;;4.90;100.00
37068;BME280;22982;42.848;25.468;2022-12-16T06:54:36;96030.88;;;5.17;100.00
37068;BME280;22982;42.848;25.468;2022-12-16T06:59:57;96009.94;;;5.21;100.00
37068;BME280;22982;42.848;25.468;2022-12-16T07:05:18;96032.91;;;5.50;100.00
37068;BME280;22982;42.848;25.468;2022-12-16T07:10:39;96031.31;;;5.67;100.00
37068;BME280;22982;42.848;25.468;2022-12-16T07:16:16;96016.75;;;6.02;100.00
37068;BME280;22982;42.848;25.468;2022-12-16T07:21:37;95987.78;;;6.27;100.00
37068;BME280;22982;42.848;25.468;2022-12-16T07:26:58;96015.66;;;6.62;100.00
37068;BME280;22982;42.848;25.468;2022-12-16T07:32:19;96020.38;;;6.54;100.00
37068;BME280;22982;42.848;25.468;2022-12-16T07:37:40;96042.28;;;6.68;100.00
37068;BME280;22982;42.848;25.468;2022-12-16T07:43:00;96037.50;;;6.77;100.00
37068;BME280;22982;42.848;25.468;2022-12-16T07:48:21;96047.19;;;7.09;100.00
37068;BME280;22982;42.848;25.468;2022-12-16T07:53:42;96035.84;;;7.11;100.00
37068;BME280;22982;42.848;25.468;2022-12-16T07:59:03;96059.28;;;7.28;100.00
37068;BME280;22982;42.848;25.468;2022-12-16T08:04:23;96057.66;;;8.25;100.00
37068;BME280;22982;42.848;25.468;2022-12-16T08:09:44;96026.41;;;10.33;100.00
37068;BME280;22982;42.848;25.468;2022-12-16T08:15:05;95994.66;;;12.44;100.00
37068;BME280;22982;42.848;25.468;2022-12-16T08:20:26;95999.44;;;14.04;91.63
37068;BME280;22982;42.848;25.468;2022-12-16T08:25:47;95971.97;;;15.68;79.04
37068;BME280;22982;42.848;25.468;2022-12-16T08:31:07;95961.78;;;17.71;62.58
37068;BME280;22982;42.848;25.468;2022-12-16T08:36:28;95958.16;;;17.72;60.62
37068;BME280;22982;42.848;25.468;2022-12-16T08:41:49;95958.72;;;18.13;61.53
37068;BME280;22982;42.848;25.468;2022-12-16T08:47:10;95934.44;;;19.44;51.78
37068;BME280;22982;42.848;25.468;2022-12-16T08:52:31;95953.59;;;20.42;49.31
37068;BME280;22982;42.848;25.468;2022-12-16T08:57:52;95944.09;;;21.23;50.48
37068;BME280;22982;42.848;25.468;2022-12-16T09:03:13;95935.41;;;21.71;46.35
37068;BME280;22982;42.848;25.468;2022-12-16T09:08:35;95920.38;;;22.34;42.86
37068;BME280;22982;42.848;25.468;2022-12-16T09:13:56;95905.66;;;23.68;43.91
37068;BME280;22982;42.848;25.468;2022-12-16T09:19:16;95892.22;;;23.92;44.58
37068;BME280;22982;42.848;25.468;2022-12-16T09:24:37;95902.97;;;22.92;43.41
37068;BME280;22982;42.848;25.468;2022-12-16T09:29:57;95899.53;;;22.21;44.35
37068;BME280;22982;42.848;25.468;2022-12-16T09:35:18;95897.03;;;22.59;38.93
37068;BME280;22982;42.848;25.468;2022-12-16T09:40:41;95884.91;;;22.09;39.76
37068;BME280;22982;42.848;25.468;2022-12-16T09:52:05;95888.63;;;21.91;40.28
37068;BME280;22982;42.848;25.468;2022-12-16T09:57:30;95898.00;;;22.35;39.91
37068;BME280;22982;42.848;25.468;2022-12-16T10:02:54;95890.88;;;23.05;38.91
37068;BME280;22982;42.848;25.468;2022-12-16T10:08:37;95905.44;;;23.40;36.80
37068;BME280;22982;42.848;25.468;2022-12-16T10:14:09;95892.78;;;22.42;38.79
37068;BME280;22982;42.848;25.468;2022-12-16T10:19:45;95906.50;;;22.62;38.95
37068;BME280;22982;42.848;25.468;2022-12-16T10:25:20;95885.66;;;23.03;38.41
37068;BME280;22982;42.848;25.468;2022-12-16T10:30:42;95877.84;;;24.44;34.72
37068;BME280;22982;42.848;25.468;2022-12-16T10:36:04;95867.00;;;25.38;34.66
37068;BME280;22982;42.848;25.468;2022-12-16T10:41:28;95843.00;;;24.44;34.33
37068;BME280;22982;42.848;25.468;2022-12-16T10:46:52;95859.16;;;24.14;35.04
37068;BME280;22982;42.848;25.468;2022-12-16T10:52:13;95861.91;;;23.46;36.54
37068;BME280;22982;42.848;25.468;2022-12-16T11:03:19;95861.91;;;22.39;37.81
37068;BME280;22982;42.848;25.468;2022-12-16T11:08:41;95865.16;;;22.26;38.13
37068;BME280;22982;42.848;25.468;2022-12-16T11:14:25;95853.84;;;22.08;37.75
37068;BME280;22982;42.848;25.468;2022-12-16T11:25:35;95847.44;;;22.25;37.29
37068;BME280;22982;42.848;25.468;2022-12-16T11:31:03;95838.34;;;22.43;37.46
37068;BME280;22982;42.848;25.468;2022-12-16T11:36:26;95827.84;;;22.87;36.11
37068;BME280;22982;42.848;25.468;2022-12-16T11:41:48;95840.84;;;22.44;36.76
37068;BME280;22982;42.848;25.468;2022-12-16T11:52:59;95832.75;;;22.52;38.27
37068;BME280;22982;42.848;25.468;2022-12-16T12:03:59;95833.59;;;22.76;36.96
37068;BME280;22982;42.848;25.468;2022-12-16T12:09:23;95845.25;;;23.21;36.17
37068;BME280;22982;42.848;25.468;2022-12-16T12:25:48;95836.72;;;23.03;35.99
37068;BME280;22982;42.848;25.468;2022-12-16T12:36:56;95847.84;;;23.15;36.72
37068;BME280;22982;42.848;25.468;2022-12-16T12:48:11;95872.97;;;22.59;36.41
37068;BME280;22982;42.848;25.468;2022-12-16T12:53:45;95872.69;;;22.77;37.01
37068;BME280;22982;42.848;25.468;2022-12-16T12:59:31;95871.94;;;22.60;37.52
37068;BME280;22982;42.848;25.468;2022-12-16T13:05:03;95880.13;;;22.35;36.84
37068;BME280;22982;42.848;25.468;2022-12-16T13:10:31;95887.84;;;22.22;37.53
37068;BME280;22982;42.848;25.468;2022-12-16T13:15:52;95880.59;;;21.99;37.91
37068;BME280;22982;42.848;25.468;2022-12-16T13:27:00;95883.66;;;21.88;38.09
37068;BME280;22982;42.848;25.468;2022-12-16T13:32:26;95904.03;;;21.81;39.21
37068;BME280;22982;42.848;25.468;2022-12-16T13:55:18;95916.47;;;20.41;43.38
37068;BME280;22982;42.848;25.468;2022-12-16T14:00:40;95929.09;;;19.96;44.35
37068;BME280;22982;42.848;25.468;2022-12-16T14:06:07;95946.56;;;19.91;45.35
37068;BME280;22982;42.848;25.468;2022-12-16T14:11:52;95934.19;;;19.55;45.77
37068;BME280;22982;42.848;25.468;2022-12-16T14:17:22;95945.81;;;19.28;49.56
37068;BME280;22982;42.848;25.468;2022-12-16T14:28:52;95950.78;;;18.13;59.08
37068;BME280;22982;42.848;25.468;2022-12-16T14:34:22;95945.53;;;17.56;63.70
37068;BME280;22982;42.848;25.468;2022-12-16T14:39:43;95954.38;;;17.18;65.15
37068;BME280;22982;42.848;25.468;2022-12-16T14:50:41;95957.25;;;16.06;71.79
37068;BME280;22982;42.848;25.468;2022-12-16T14:56:29;95970.81;;;15.82;74.02
37068;BME280;22982;42.848;25.468;2022-12-16T15:01:51;95968.47;;;15.37;77.31
37068;BME280;22982;42.848;25.468;2022-12-16T15:07:14;95970.13;;;15.17;78.01
37068;BME280;22982;42.848;25.468;2022-12-16T15:12:39;95984.72;;;14.56;85.17
37068;BME280;22982;42.848;25.468;2022-12-16T15:18:01;95974.00;;;14.25;87.04
37068;BME280;22982;42.848;25.468;2022-12-16T15:23:29;96001.09;;;14.16;89.13
37068;BME280;22982;42.848;25.468;2022-12-16T15:28:53;95990.00;;;13.90;91.82
37068;BME280;22982;42.848;25.468;2022-12-16T15:39:44;95963.56;;;12.87;97.92
37068;BME280;22982;42.848;25.468;2022-12-16T15:45:18;95965.31;;;12.86;99.06
37068;BME280;22982;42.848;25.468;2022-12-16T15:50:51;95968.31;;;12.81;99.77
37068;BME280;22982;42.848;25.468;2022-12-16T15:56:22;95982.53;;;12.55;99.94
37068;BME280;22982;42.848;25.468;2022-12-16T16:01:43;96001.72;;;12.20;100.00
37068;BME280;22982;42.848;25.468;2022-12-16T16:07:17;95990.81;;;11.75;100.00
37068;BME280;22982;42.848;25.468;2022-12-16T16:12:38;96006.16;;;11.68;100.00
37068;BME280;22982;42.848;25.468;2022-12-16T16:18:04;96004.69;;;11.64;100.00
37068;BME280;22982;42.848;25.468;2022-12-16T16:23:25;95981.81;;;11.53;100.00
37068;BME280;22982;42.848;25.468;2022-12-16T16:28:46;96010.13;;;11.09;100.00
37068;BME280;22982;42.848;25.468;2022-12-16T16:34:07;96014.56;;;10.95;100.00
37068;BME280;22982;42.848;25.468;2022-12-16T16:39:28;96020.78;;;10.94;100.00
37068;BME280;22982;42.848;25.468;2022-12-16T16:44:49;96015.91;;;10.87;100.00
37068;BME280;22982;42.848;25.468;2022-12-16T16:50:13;96015.56;;;10.66;100.00
37068;BME280;22982;42.848;25.468;2022-12-16T16:55:35;96037.34;;;10.67;100.00
37068;BME280;22982;42.848;25.468;2022-12-16T17:00:56;96023.88;;;10.59;100.00
37068;BME280;22982;42.848;25.468;2022-12-16T17:06:17;96018.72;;;10.44;100.00
37068;BME280;22982;42.848;25.468;2022-12-16T17:11:38;96021.13;;;10.47;100.00
37068;BME280;22982;42.848;25.468;2022-12-16T17:16:59;96019.91;;;10.24;100.00
37068;BME280;22982;42.848;25.468;2022-12-16T17:22:19;95996.97;;;9.86;100.00
37068;BME280;22982;42.848;25.468;2022-12-16T17:27:42;96000.25;;;9.75;100.00
37068;BME280;22982;42.848;25.468;2022-12-16T17:33:04;96006.25;;;9.49;100.00
37068;BME280;22982;42.848;25.468;2022-12-16T17:38:26;96002.00;;;9.32;100.00
37068;BME280;22982;42.848;25.468;2022-12-16T17:43:51;96006.63;;;9.12;100.00
37068;BME280;22982;42.848;25.468;2022-12-16T17:49:12;95987.47;;;8.97;100.00
37068;BME280;22982;42.848;25.468;2022-12-16T17:54:33;95983.34;;;8.93;100.00
37068;BME280;22982;42.848;25.468;2022-12-16T17:59:55;96007.03;;;8.90;100.00
37068;BME280;22982;42.848;25.468;2022-12-16T18:05:16;96009.50;;;8.93;100.00
37068;BME280;22982;42.848;25.468;2022-12-16T18:10:45;96008.69;;;8.77;100.00
37068;BME280;22982;42.848;25.468;2022-12-16T18:16:06;96001.19;;;8.71;100.00
37068;BME280;22982;42.848;25.468;2022-12-16T18:21:27;96021.94;;;8.74;100.00
37068;BME280;22982;42.848;25.468;2022-12-16T18:27:08;96007.22;;;8.57;100.00
37068;BME280;22982;42.848;25.468;2022-12-16T18:32:29;96004.75;;;8.54;100.00
37068;BME280;22982;42.848;25.468;2022-12-16T18:37:50;95991.56;;;8.87;100.00
37068;BME280;22982;42.848;25.468;2022-12-16T18:43:17;95974.81;;;9.92;100.00
37068;BME280;22982;42.848;25.468;2022-12-16T18:48:54;95983.78;;;10.84;100.00
37068;BME280;22982;42.848;25.468;2022-12-16T18:54:15;95979.38;;;11.24;100.00
37068;BME280;22982;42.848;25.468;2022-12-16T18:59:36;95966.84;;;11.79;100.00
37068;BME280;22982;42.848;25.468;2022-12-16T19:04:57;95957.28;;;12.28;100.00
37068;BME280;22982;42.848;25.468;2022-12-16T19:10:18;95958.25;;;13.22;92.42
37068;BME280;22982;42.848;25.468;2022-12-16T19:15:39;95953.09;;;14.67;81.92
37068;BME280;22982;42.848;25.468;2022-12-16T19:21:00;95957.91;;;15.67;74.24
37068;BME280;22982;42.848;25.468;2022-12-16T19:26:34;95975.19;;;15.93;72.48
37068;BME280;22982;42.848;25.468;2022-12-16T19:31:57;95958.81;;;16.08;71.82
37068;BME280;22982;42.848;25.468;2022-12-16T19:37:18;95940.44;;;16.96;64.66
37068;BME280;22982;42.848;25.468;2022-12-16T19:42:39;95955.34;;;17.74;60.42
37068;BME280;22982;42.848;25.468;2022-12-16T19:48:08;95966.31;;;18.36;57.21
37068;BME280;22982;42.848;25.468;2022-12-16T19:53:29;95963.34;;;18.39;57.04
37068;BME280;22982;42.848;25.468;2022-12-16T19:58:52;95958.53;;;18.25;56.73
37068;BME280;22982;42.848;25.468;2022-12-16T20:04:13;95952.72;;;18.39;56.20
37068;BME280;22982;42.848;25.468;2022-12-16T20:09:36;95964.88;;;18.87;53.86
37068;BME280;22982;42.848;25.468;2022-12-16T20:15:04;95957.41;;;18.73;53.83
37068;BME280;22982;42.848;25.468;2022-12-16T20:20:26;95962.44;;;18.30;56.09
37068;BME280;22982;42.848;25.468;2022-12-16T20:25:58;95989.41;;;18.81;54.22
37068;BME280;22982;42.848;25.468;2022-12-16T20:31:19;95971.97;;;18.69;53.93
37068;BME280;22982;42.848;25.468;2022-12-16T20:36:41;95986.75;;;18.71;54.26
37068;BME280;22982;42.848;25.468;2022-12-16T20:42:04;95969.41;;;18.59;54.22
37068;BME280;22982;42.848;25.468;2022-12-16T20:47:25;95972.84;;;18.42;54.29
37068;BME280;22982;42.848;25.468;2022-12-16T20:52:46;95981.44;;;18.81;53.33
37068;BME280;22982;42.848;25.468;2022-12-16T20:58:08;95980.22;;;18.66;54.95
37068;BME280;22982;42.848;25.468;2022-12-16T21:03:40;95973.53;;;18.44;54.03
37068;BME280;22982;42.848;25.468;2022-12-16T21:09:01;95980.81;;;18.42;54.40
37068;BME280;22982;42.848;25.468;2022-12-16T21:14:22;95970.38;;;18.76;52.45
37068;BME280;22982;42.848;25.468;2022-12-16T21:19:43;95976.13;;;18.81;52.08
37068;BME280;22982;42.848;25.468;2022-12-16T21:25:05;95968.31;;;18.70;52.44
37068;BME280;22982;42.848;25.468;2022-12-16T21:30:26;95975.31;;;18.71;53.03
37068;BME280;22982;42.848;25.468;2022-12-16T21:35:51;95945.16;;;18.62;52.75
37068;BME280;22982;42.848;25.468;2022-12-16T21:41:11;95949.03;;;18.50;53.12
37068;BME280;22982;42.848;25.468;2022-12-16T21:46:32;95965.88;;;18.59;52.53
37068;BME280;22982;42.848;25.468;2022-12-16T21:51:54;95961.25;;;18.79;51.75
37068;BME280;22982;42.848;25.468;2022-12-16T21:57:15;95966.03;;;18.75;52.33
37068;BME280;22982;42.848;25.468;2022-12-16T22:02:36;95976.22;;;18.62;52.25
37068;BME280;22982;42.848;25.468;2022-12-16T22:07:57;95970.97;;;18.70;52.13
37068;BME280;22982;42.848;25.468;2022-12-16T22:13:17;95940.63;;;18.54;52.39
37068;BME280;22982;42.848;25.468;2022-12-16T22:18:39;95955.69;;;18.82;51.19
37068;BME280;22982;42.848;25.468;2022-12-16T22:23:59;95958.00;;;18.67;52.73
37068;BME280;22982;42.848;25.468;2022-12-16T22:29:20;95946.25;;;18.24;53.65
37068;BME280;22982;42.848;25.468;2022-12-16T22:34:42;95923.09;;;18.62;51.04
37068;BME280;22982;42.848;25.468;2022-12-16T22:40:03;95920.75;;;18.59;51.63
37068;BME280;22982;42.848;25.468;2022-12-16T22:45:24;95937.50;;;18.77;50.71
37068;BME280;22982;42.848;25.468;2022-12-16T22:51:12;95930.72;;;18.92;50.05
37068;BME280;22982;42.848;25.468;2022-12-16T22:56:33;95932.03;;;18.88;50.48
37068;BME280;22982;42.848;25.468;2022-12-16T23:01:57;95920.78;;;18.94;49.79
37068;BME280;22982;42.848;25.468;2022-12-16T23:07:22;95923.66;;;18.83;49.47
37068;BME280;22982;42.848;25.468;2022-12-16T23:12:42;95932.31;;;18.85;50.34
37068;BME280;22982;42.848;25.468;2022-12-16T23:18:03;95932.19;;;17.86;54.39
37068;BME280;22982;42.848;25.468;2022-12-16T23:23:24;95929.22;;;17.51;54.11
37068;BME280;22982;42.848;25.468;2022-12-16T23:28:49;95927.38;;;17.99;54.07
37068;BME280;22982;42.848;25.468;2022-12-16T23:34:10;95932.19;;;17.19;58.75
37068;BME280;22982;42.848;25.468;2022-12-16T23:39:31;95904.41;;;15.75;66.05
37068;BME280;22982;42.848;25.468;2022-12-16T23:44:52;95946.91;;;15.10;71.67
37068;BME280;22982;42.848;25.468;2022-12-16T23:50:15;95923.88;;;15.01;70.25
37068;BME280;22982;42.848;25.468;2022-12-16T23:55:35;95928.03;;;15.46;68.84
